Time;durP1;ratioP1;P1;durP2;ratioP2;P2;SDS_P1;SDS_P2;PMS_P1;PMS_P2;Temp;Humidity;BMP_temperature;BMP_pressure;BME280_temperature;BME280_humidity;BME280_pressure;Samples;Min_cycle;Max_cycle;Signal;HPM_P1;HPM_P2
2022/01/25 00:24:13;;;;;;;14.93;13.38;;;;;;;;;;5064707;28;20284;-77
2022/01/25 00:26:46;;;;;;;15.80;13.52;;;;;;;;;;5054237;28;20202;-78
2022/01/25 00:29:25;;;;;;;17.40;11.80;;;;;;;;;;5050815;28;20202;-77
2022/01/25 00:31:53;;;;;;;15.38;12.40;;;;;;;;;;5049518;28;20190;-77
2022/01/25 00:34:20;;;;;;;17.08;12.38;;;;;;;;;;5051067;28;20727;-75
2022/01/25 00:36:47;;;;;;;15.35;12.60;;;;;;;;;;5051283;28;20207;-78
2022/01/25 00:39:15;;;;;;;14.60;12.75;;;;;;;;;;5051793;28;20199;-77
2022/01/25 00:41:42;;;;;;;15.07;11.82;;;;;;;;;;5055954;28;20652;-78
2022/01/25 00:44:12;;;;;;;15.90;12.13;;;;;;;;;;5055382;28;20222;-75
2022/01/25 00:46:39;;;;;;;14.85;11.82;;;;;;;;;;5050742;28;20264;-75
2022/01/25 00:49:07;;;;;;;18.70;12.93;;;;;;;;;;5050869;28;20191;-76
2022/01/25 00:54:27;;;;;;;14.10;12.63;;;;;;;;;;5034822;28;20297;-76
2022/01/25 00:56:55;;;;;;;15.35;12.23;;;;;;;;;;5044642;28;20237;-76
2022/01/25 00:59:23;;;;;;;14.02;12.48;;;;;;;;;;5035707;28;20205;-77
2022/01/25 01:01:52;;;;;;;14.77;13.15;;;;;;;;;;5052111;28;20545;-75
2022/01/25 01:04:19;;;;;;;16.10;13.45;;;;;;;;;;5037870;28;20237;-77
2022/01/25 01:06:47;;;;;;;15.52;11.90;;;;;;;;;;5040937;28;20226;-75
2022/01/25 01:09:15;;;;;;;15.50;12.90;;;;;;;;;;5069914;28;20209;-77
2022/01/25 01:11:50;;;;;;;14.20;10.80;;;;;;;;;;5050260;28;20194;-76
2022/01/25 01:14:23;;;;;;;16.38;13.13;;;;;;;;;;5051034;28;20210;-77
2022/01/25 01:17:06;;;;;;;15.70;11.90;;;;;;;;;;5053482;28;20566;-77
2022/01/25 01:30:34;;;;;;;16.17;13.77;;;;;;;;;;5028819;28;20203;-77
2022/01/25 01:33:29;;;;;;;13.27;11.88;;;;;;;;;;5031355;28;20552;-78
2022/01/25 01:39:12;;;;;;;15.55;12.73;;;;;;;;;;4997029;28;20200;-77
2022/01/25 01:41:53;;;;;;;14.40;12.82;;;;;;;;;;5018634;28;20203;-76
2022/01/25 01:44:23;;;;;;;14.75;12.73;;;;;;;;;;5022607;28;20215;-76
2022/01/25 01:47:05;;;;;;;17.30;12.05;;;;;;;;;;5025540;28;20215;-75
2022/01/25 01:49:38;;;;;;;13.52;12.10;;;;;;;;;;5029377;28;20220;-79
2022/01/25 01:52:06;;;;;;;12.38;11.18;;;;;;;;;;5031641;28;20192;-77
2022/01/25 01:54:33;;;;;;;14.85;12.35;;;;;;;;;;5031128;28;20663;-79
2022/01/25 01:57:01;;;;;;;16.40;12.07;;;;;;;;;;5030693;28;20207;-78
2022/01/25 01:59:29;;;;;;;14.85;12.30;;;;;;;;;;5049891;28;20209;-77
2022/01/25 02:01:57;;;;;;;15.88;13.10;;;;;;;;;;5056245;28;20318;-76
2022/01/25 02:04:24;;;;;;;13.55;11.63;;;;;;;;;;5059802;28;20312;-76
2022/01/25 02:06:51;;;;;;;16.80;12.38;;;;;;;;;;5059804;28;20226;-78
2022/01/25 02:09:18;;;;;;;12.88;10.70;;;;;;;;;;5056044;28;20703;-76
2022/01/25 02:11:45;;;;;;;12.93;11.63;;;;;;;;;;5065546;28;20197;-76
2022/01/25 02:14:15;;;;;;;13.13;11.02;;;;;;;;;;5073344;28;20225;-77
2022/01/25 02:16:59;;;;;;;15.10;11.60;;;;;;;;;;5073215;28;20259;-77
2022/01/25 02:24:50;;;;;;;18.67;11.52;;;;;;;;;;5039621;28;20737;-77
2022/01/25 02:27:17;;;;;;;12.02;10.90;;;;;;;;;;5055187;28;20241;-77
2022/01/25 02:29:44;;;;;;;16.38;11.70;;;;;;;;;;5050985;28;20201;-77
2022/01/25 02:32:12;;;;;;;16.80;11.95;;;;;;;;;;5069717;28;20190;-79
2022/01/25 02:34:39;;;;;;;12.95;11.52;;;;;;;;;;5055086;28;20682;-78
2022/01/25 02:37:08;;;;;;;12.77;11.32;;;;;;;;;;5063949;28;20205;-75
2022/01/25 02:39:37;;;;;;;13.07;11.57;;;;;;;;;;5053783;28;20281;-76
2022/01/25 02:42:05;;;;;;;15.57;13.38;;;;;;;;;;5036746;28;20209;-76
2022/01/25 02:44:34;;;;;;;14.80;13.30;;;;;;;;;;5057497;28;20211;-75
2022/01/25 02:49:42;;;;;;;14.13;12.35;;;;;;;;;;5050421;28;20205;-79
2022/01/25 02:52:09;;;;;;;15.50;13.38;;;;;;;;;;5072213;28;20202;-76
2022/01/25 02:54:40;;;;;;;15.45;12.35;;;;;;;;;;5072289;28;20218;-78
2022/01/25 02:57:07;;;;;;;17.00;13.38;;;;;;;;;;5072858;28;20198;-76
2022/01/25 02:59:35;;;;;;;16.48;14.43;;;;;;;;;;5060785;28;20218;-78
2022/01/25 03:02:02;;;;;;;14.68;12.55;;;;;;;;;;5050283;28;20531;-77
2022/01/25 03:04:29;;;;;;;17.30;13.57;;;;;;;;;;5057643;28;21455;-79
2022/01/25 03:06:57;;;;;;;19.00;14.63;;;;;;;;;;5053276;28;20541;-76
2022/01/25 03:09:24;;;;;;;16.75;13.68;;;;;;;;;;5051046;28;20283;-78
2022/01/25 03:11:54;;;;;;;17.55;13.70;;;;;;;;;;5052449;28;20678;-78
2022/01/25 03:14:26;;;;;;;14.15;12.63;;;;;;;;;;5052593;28;20225;-78
2022/01/25 03:17:06;;;;;;;17.65;13.80;;;;;;;;;;5035454;28;20194;-76
2022/01/25 03:22:18;;;;;;;15.82;12.95;;;;;;;;;;5044460;28;20203;-75
2022/01/25 03:24:46;;;;;;;15.80;12.20;;;;;;;;;;5053926;28;20214;-78
2022/01/25 03:27:17;;;;;;;16.10;12.73;;;;;;;;;;5052997;28;20190;-76
2022/01/25 03:29:44;;;;;;;13.10;11.80;;;;;;;;;;5071992;28;20288;-77
2022/01/25 03:32:11;;;;;;;20.58;12.75;;;;;;;;;;5072388;28;20541;-75
2022/01/25 03:34:39;;;;;;;16.00;12.68;;;;;;;;;;5060663;28;20214;-76
2022/01/25 03:37:06;;;;;;;18.42;13.45;;;;;;;;;;5057893;28;20674;-76
2022/01/25 03:39:33;;;;;;;17.40;13.02;;;;;;;;;;5059560;28;20191;-75
2022/01/25 03:42:06;;;;;;;20.50;13.85;;;;;;;;;;5071668;28;20667;-79
2022/01/25 03:44:34;;;;;;;13.45;12.05;;;;;;;;;;5071438;28;20249;-75
2022/01/25 03:47:06;;;;;;;15.60;12.23;;;;;;;;;;5072032;28;20197;-76
2022/01/25 03:52:16;;;;;;;15.98;13.23;;;;;;;;;;5040545;28;20649;-77
2022/01/25 03:54:43;;;;;;;14.90;12.43;;;;;;;;;;5057210;28;20237;-76
2022/01/25 03:57:11;;;;;;;18.95;12.77;;;;;;;;;;5063590;28;20214;-78
2022/01/25 03:59:40;;;;;;;14.75;11.57;;;;;;;;;;5071560;28;20541;-75
2022/01/25 04:02:07;;;;;;;17.55;12.25;;;;;;;;;;5071634;28;20189;-78
2022/01/25 04:04:35;;;;;;;16.45;12.57;;;;;;;;;;5065449;28;20228;-78
2022/01/25 04:07:08;;;;;;;14.35;12.10;;;;;;;;;;5051950;28;20233;-77
2022/01/25 04:09:38;;;;;;;17.38;12.75;;;;;;;;;;5071854;28;20201;-77
2022/01/25 04:12:06;;;;;;;15.65;13.05;;;;;;;;;;5073511;28;20197;-76
2022/01/25 04:14:33;;;;;;;15.80;12.30;;;;;;;;;;5065025;28;20212;-77
2022/01/25 04:17:05;;;;;;;15.70;13.30;;;;;;;;;;5055811;28;20605;-76
2022/01/25 04:19:36;;;;;;;15.15;13.45;;;;;;;;;;5053131;28;20191;-75
2022/01/25 04:27:27;;;;;;;15.05;13.20;;;;;;;;;;5034451;28;20296;-78
2022/01/25 04:29:54;;;;;;;13.95;12.45;;;;;;;;;;5051169;28;20569;-77
2022/01/25 04:32:31;;;;;;;15.73;13.68;;;;;;;;;;5053105;28;20205;-76
2022/01/25 04:35:10;;;;;;;21.42;14.68;;;;;;;;;;5052408;28;20296;-79
2022/01/25 04:51:23;;;;;;;15.23;12.75;;;;;;;;;;5053186;28;20233;-77
2022/01/25 04:53:56;;;;;;;17.20;13.80;;;;;;;;;;5076708;28;20590;-76
2022/01/25 04:56:29;;;;;;;16.48;13.63;;;;;;;;;;5077310;28;20201;-79
2022/01/25 04:59:03;;;;;;;17.80;14.70;;;;;;;;;;5067602;28;20186;-78
2022/01/25 05:01:30;;;;;;;18.30;15.25;;;;;;;;;;5059843;28;22196;-78
2022/01/25 05:04:14;;;;;;;15.00;13.18;;;;;;;;;;5055482;28;20264;-80
2022/01/25 05:06:44;;;;;;;16.63;13.65;;;;;;;;;;5054038;28;20199;-78
2022/01/25 05:09:13;;;;;;;16.48;13.65;;;;;;;;;;5053135;28;20317;-79
2022/01/25 05:11:45;;;;;;;15.75;13.30;;;;;;;;;;5053942;28;20194;-76
2022/01/25 05:14:17;;;;;;;17.30;14.40;;;;;;;;;;5037797;28;20375;-74
2022/01/25 05:16:50;;;;;;;22.77;14.68;;;;;;;;;;5058541;28;20190;-78
2022/01/25 05:19:35;;;;;;;18.77;14.35;;;;;;;;;;5059100;28;20197;-75
2022/01/25 05:22:05;;;;;;;18.40;14.02;;;;;;;;;;5050998;28;20201;-79
2022/01/25 05:24:33;;;;;;;21.23;15.20;;;;;;;;;;5056947;28;20220;-77
2022/01/25 05:27:00;;;;;;;17.25;14.23;;;;;;;;;;5074321;28;20194;-79
2022/01/25 05:29:27;;;;;;;18.75;14.88;;;;;;;;;;5072287;28;20245;-78
2022/01/25 05:31:54;;;;;;;19.63;14.63;;;;;;;;;;5064997;28;20199;-77
2022/01/25 05:34:23;;;;;;;17.58;14.23;;;;;;;;;;5057951;28;20307;-76
2022/01/25 05:36:50;;;;;;;18.17;14.82;;;;;;;;;;5044955;28;20666;-80
2022/01/25 05:39:21;;;;;;;15.82;14.13;;;;;;;;;;5054757;28;20560;-76
2022/01/25 05:44:23;;;;;;;23.80;15.60;;;;;;;;;;5070254;28;20255;-80
2022/01/25 05:47:05;;;;;;;19.13;14.00;;;;;;;;;;5074095;28;20941;-78
2022/01/25 05:49:35;;;;;;;18.60;14.68;;;;;;;;;;5067689;28;20246;-77
2022/01/25 05:52:02;;;;;;;18.70;15.07;;;;;;;;;;5058250;28;20201;-78
2022/01/25 05:54:29;;;;;;;22.70;15.45;;;;;;;;;;5064491;28;20559;-76
2022/01/25 05:56:56;;;;;;;19.73;15.45;;;;;;;;;;5072853;28;20558;-76
2022/01/25 05:59:24;;;;;;;16.55;14.68;;;;;;;;;;5073768;28;20543;-79
2022/01/25 06:01:51;;;;;;;19.95;14.98;;;;;;;;;;5073276;28;20201;-77
2022/01/25 06:04:18;;;;;;;20.33;15.52;;;;;;;;;;5056353;28;20234;-77
2022/01/25 06:06:47;;;;;;;20.70;16.00;;;;;;;;;;5060172;28;20724;-77
2022/01/25 06:09:14;;;;;;;20.48;14.98;;;;;;;;;;5059403;28;20218;-78
2022/01/25 06:11:41;;;;;;;19.45;15.13;;;;;;;;;;5064822;28;20190;-77
2022/01/25 06:14:08;;;;;;;16.15;13.57;;;;;;;;;;5072344;28;20214;-75
2022/01/25 06:16:36;;;;;;;19.80;15.48;;;;;;;;;;5070858;28;20286;-74
2022/01/25 06:19:03;;;;;;;25.88;16.92;;;;;;;;;;5073315;28;20208;-77
2022/01/25 06:21:30;;;;;;;26.30;16.73;;;;;;;;;;5073531;28;20197;-78
2022/01/25 06:23:59;;;;;;;24.35;15.43;;;;;;;;;;5056655;28;20692;-76
2022/01/25 06:26:26;;;;;;;18.38;14.15;;;;;;;;;;5058312;28;20199;-76
2022/01/25 06:28:53;;;;;;;22.02;15.05;;;;;;;;;;5054895;28;20553;-77
2022/01/25 06:31:21;;;;;;;19.60;15.10;;;;;;;;;;5035455;28;20198;-77
2022/01/25 06:33:48;;;;;;;21.08;15.50;;;;;;;;;;5056095;28;20199;-76
2022/01/25 06:36:18;;;;;;;23.88;15.27;;;;;;;;;;5052886;28;20290;-75
2022/01/25 06:38:45;;;;;;;21.10;15.45;;;;;;;;;;5052373;28;20252;-77
2022/01/25 06:41:16;;;;;;;21.92;14.95;;;;;;;;;;5066934;28;20214;-77
2022/01/25 06:43:46;;;;;;;25.75;16.27;;;;;;;;;;5057927;28;20186;-77
2022/01/25 06:46:13;;;;;;;18.45;13.75;;;;;;;;;;5052768;28;20209;-76
2022/01/25 06:48:41;;;;;;;19.98;15.40;;;;;;;;;;5060565;28;20562;-75
2022/01/25 06:51:08;;;;;;;21.80;16.27;;;;;;;;;;5072585;28;20205;-77
2022/01/25 06:53:35;;;;;;;23.40;16.85;;;;;;;;;;5056662;28;20195;-74
2022/01/25 06:56:04;;;;;;;18.92;15.60;;;;;;;;;;5052767;28;20190;-76
2022/01/25 06:58:34;;;;;;;24.15;15.07;;;;;;;;;;5051927;28;20233;-76
2022/01/25 07:01:01;;;;;;;20.02;15.60;;;;;;;;;;5056884;28;20222;-75
2022/01/25 07:03:29;;;;;;;18.35;15.30;;;;;;;;;;5055889;28;20191;-76
2022/01/25 07:05:56;;;;;;;21.05;15.85;;;;;;;;;;5050965;28;20233;-78
2022/01/25 07:08:23;;;;;;;18.83;14.90;;;;;;;;;;5052066;28;20219;-75
2022/01/25 07:10:50;;;;;;;20.17;15.93;;;;;;;;;;5064659;28;20194;-78
2022/01/25 07:13:17;;;;;;;21.42;15.82;;;;;;;;;;5072789;28;20194;-78
2022/01/25 07:15:46;;;;;;;26.45;18.10;;;;;;;;;;5069340;28;20222;-80
2022/01/25 07:18:15;;;;;;;23.20;17.02;;;;;;;;;;5073919;28;20205;-75
2022/01/25 07:20:42;;;;;;;23.38;15.55;;;;;;;;;;5059145;28;20195;-77
2022/01/25 07:23:09;;;;;;;24.20;18.17;;;;;;;;;;5056696;28;20195;-76
2022/01/25 07:25:36;;;;;;;24.40;17.38;;;;;;;;;;5057321;28;20210;-76
2022/01/25 07:28:04;;;;;;;26.67;17.35;;;;;;;;;;5053905;28;20606;-77
2022/01/25 07:30:31;;;;;;;23.80;17.10;;;;;;;;;;5071850;28;20285;-76
2022/01/25 07:33:05;;;;;;;25.38;17.88;;;;;;;;;;5064258;28;20210;-79
2022/01/25 07:35:32;;;;;;;21.35;16.67;;;;;;;;;;5220900;23;20278;-77
2022/01/25 07:37:59;;;;;;;23.65;16.23;;;;;;;;;;5091066;28;20201;-76
2022/01/25 07:40:27;;;;;;;23.38;16.13;;;;;;;;;;5094198;28;20559;-78
2022/01/25 07:42:54;;;;;;;21.10;16.38;;;;;;;;;;5093744;28;20200;-79
2022/01/25 07:45:21;;;;;;;23.42;16.88;;;;;;;;;;5081016;28;20210;-77
2022/01/25 07:47:49;;;;;;;21.95;15.82;;;;;;;;;;5076225;28;20198;-79
2022/01/25 07:50:17;;;;;;;23.10;16.63;;;;;;;;;;5071967;28;20225;-79
2022/01/25 07:52:44;;;;;;;29.73;17.75;;;;;;;;;;5084170;28;20193;-80
2022/01/25 07:55:11;;;;;;;27.65;16.50;;;;;;;;;;5070131;28;20218;-76
2022/01/25 07:57:39;;;;;;;26.77;17.33;;;;;;;;;;5070301;28;20197;-79
2022/01/25 08:00:07;;;;;;;22.52;16.63;;;;;;;;;;5074473;28;20250;-79
2022/01/25 08:02:35;;;;;;;22.88;14.35;;;;;;;;;;5076546;28;20205;-79
2022/01/25 08:05:02;;;;;;;28.63;17.92;;;;;;;;;;5079410;28;20737;-81
2022/01/25 08:07:30;;;;;;;23.52;15.43;;;;;;;;;;5073742;28;20601;-78
2022/01/25 08:09:57;;;;;;;22.52;13.90;;;;;;;;;;5070120;28;20213;-79
2022/01/25 08:12:25;;;;;;;24.08;15.55;;;;;;;;;;5071426;28;20198;-79
2022/01/25 08:14:53;;;;;;;23.63;14.38;;;;;;;;;;5078032;28;20209;-76
2022/01/25 08:17:20;;;;;;;25.85;14.90;;;;;;;;;;5083349;28;20194;-77
2022/01/25 08:19:47;;;;;;;23.52;14.00;;;;;;;;;;5077312;28;20181;-76
2022/01/25 08:22:15;;;;;;;19.45;13.80;;;;;;;;;;5075605;28;20196;-77
2022/01/25 08:24:43;;;;;;;26.65;15.55;;;;;;;;;;5079506;28;20205;-80
2022/01/25 08:27:11;;;;;;;26.27;15.52;;;;;;;;;;5069136;28;20662;-77
2022/01/25 08:29:38;;;;;;;22.33;14.13;;;;;;;;;;5069705;28;20214;-78
2022/01/25 08:32:06;;;;;;;25.17;14.90;;;;;;;;;;5086391;28;20193;-79
2022/01/25 08:34:33;;;;;;;22.15;14.70;;;;;;;;;;5082409;28;20595;-77
2022/01/25 08:37:00;;;;;;;22.27;14.20;;;;;;;;;;5076862;28;20182;-77
2022/01/25 08:39:28;;;;;;;22.33;14.80;;;;;;;;;;5086622;28;20212;-80
2022/01/25 08:41:57;;;;;;;25.10;15.00;;;;;;;;;;5069870;28;20194;-81
2022/01/25 08:44:24;;;;;;;28.83;16.95;;;;;;;;;;5076073;28;20217;-81
2022/01/25 08:46:51;;;;;;;30.30;16.65;;;;;;;;;;5074075;28;20197;-77
2022/01/25 08:49:20;;;;;;;28.15;16.77;;;;;;;;;;5074212;28;20567;-77
2022/01/25 08:51:48;;;;;;;31.02;18.30;;;;;;;;;;5076672;28;20563;-80
2022/01/25 08:54:16;;;;;;;35.63;19.27;;;;;;;;;;5079531;28;20205;-81
2022/01/25 08:56:43;;;;;;;30.10;17.13;;;;;;;;;;5089658;28;20872;-81
2022/01/25 08:59:11;;;;;;;28.77;16.52;;;;;;;;;;5080409;28;20222;-80
2022/01/25 09:01:38;;;;;;;29.80;16.90;;;;;;;;;;5071161;28;20198;-82
2022/01/25 09:04:06;;;;;;;31.08;16.63;;;;;;;;;;5069743;28;20542;-79
2022/01/25 09:06:33;;;;;;;30.40;16.33;;;;;;;;;;5076854;28;20205;-79
2022/01/25 09:09:02;;;;;;;28.15;16.10;;;;;;;;;;5090233;28;20579;-78
2022/01/25 09:11:29;;;;;;;26.30;16.83;;;;;;;;;;5092888;28;20189;-79
2022/01/25 09:13:56;;;;;;;26.80;16.50;;;;;;;;;;5076671;28;20225;-81
2022/01/25 09:16:24;;;;;;;26.08;15.85;;;;;;;;;;5075054;28;20201;-80
2022/01/25 09:18:52;;;;;;;27.00;15.23;;;;;;;;;;5069251;28;20194;-78
2022/01/25 09:21:19;;;;;;;33.25;15.85;;;;;;;;;;5075106;28;20186;-81
2022/01/25 09:23:53;;;;;;;31.92;17.35;;;;;;;;;;5090325;28;20185;-79
2022/01/25 09:26:20;;;;;;;34.05;18.52;;;;;;;;;;5088552;28;20204;-80
2022/01/25 09:28:49;;;;;;;26.05;16.15;;;;;;;;;;5082085;28;20591;-79
2022/01/25 09:31:17;;;;;;;24.10;14.43;;;;;;;;;;5084438;28;20193;-77
2022/01/25 09:33:45;;;;;;;25.40;13.43;;;;;;;;;;5083243;28;20826;-77
2022/01/25 09:36:13;;;;;;;29.50;16.25;;;;;;;;;;5077351;28;20205;-78
2022/01/25 09:38:40;;;;;;;25.52;14.38;;;;;;;;;;5079789;28;20201;-79
2022/01/25 09:41:07;;;;;;;20.50;12.80;;;;;;;;;;5092883;28;20567;-77
2022/01/25 09:43:34;;;;;;;26.05;14.25;;;;;;;;;;5093316;28;20280;-77
2022/01/25 09:46:01;;;;;;;25.67;13.50;;;;;;;;;;5077368;28;20193;-77
2022/01/25 09:48:29;;;;;;;27.80;12.98;;;;;;;;;;5078265;28;20204;-78
2022/01/25 09:50:59;;;;;;;24.45;14.45;;;;;;;;;;5089475;28;20221;-78
2022/01/25 09:53:26;;;;;;;27.63;14.93;;;;;;;;;;5083779;28;20189;-77
2022/01/25 09:55:54;;;;;;;24.10;13.82;;;;;;;;;;5076953;28;20209;-76
2022/01/25 09:58:21;;;;;;;29.60;15.38;;;;;;;;;;5091060;28;20197;-79
2022/01/25 10:00:49;;;;;;;23.95;14.30;;;;;;;;;;5082109;28;20198;-79
2022/01/25 10:03:23;;;;;;;24.35;14.10;;;;;;;;;;5071074;28;20189;-78
2022/01/25 10:05:51;;;;;;;30.65;16.02;;;;;;;;;;5073449;28;20245;-83
2022/01/25 10:08:21;;;;;;;26.92;15.77;;;;;;;;;;5073664;28;20204;-78
2022/01/25 10:10:49;;;;;;;25.20;15.15;;;;;;;;;;5079195;28;20367;-78
2022/01/25 10:13:20;;;;;;;24.58;14.35;;;;;;;;;;5081191;28;20197;-78
2022/01/25 10:15:48;;;;;;;24.05;14.20;;;;;;;;;;5091831;28;20209;-79
2022/01/25 10:18:15;;;;;;;30.08;14.93;;;;;;;;;;5081021;28;20206;-79
2022/01/25 10:20:44;;;;;;;28.23;16.45;;;;;;;;;;5066785;28;20672;-78
2022/01/25 10:23:12;;;;;;;31.48;15.77;;;;;;;;;;5072191;28;20198;-79
2022/01/25 10:25:42;;;;;;;30.48;15.88;;;;;;;;;;5090417;28;20217;-80
2022/01/25 10:28:13;;;;;;;36.13;15.77;;;;;;;;;;5077470;28;20296;-80
2022/01/25 10:30:43;;;;;;;24.63;14.25;;;;;;;;;;5077534;28;20218;-82
2022/01/25 10:33:19;;;;;;;27.08;15.30;;;;;;;;;;5082586;28;20204;-80
2022/01/25 10:35:46;;;;;;;23.88;13.68;;;;;;;;;;5090275;28;20232;-76
2022/01/25 10:38:22;;;;;;;29.30;16.75;;;;;;;;;;5091894;28;20208;-82
2022/01/25 10:40:59;;;;;;;25.13;14.80;;;;;;;;;;5090918;28;20276;-79
2022/01/25 10:43:28;;;;;;;27.95;14.52;;;;;;;;;;5083181;28;20197;-79
2022/01/25 10:46:10;;;;;;;26.02;13.90;;;;;;;;;;5076337;28;20210;-77
2022/01/25 10:48:38;;;;;;;29.05;14.07;;;;;;;;;;5088436;28;20189;-78
2022/01/25 10:51:06;;;;;;;26.85;13.90;;;;;;;;;;5086584;28;20228;-79
2022/01/25 10:53:34;;;;;;;25.25;14.35;;;;;;;;;;5092615;28;20197;-78
2022/01/25 10:56:02;;;;;;;24.70;14.52;;;;;;;;;;5090686;28;20564;-79
2022/01/25 10:58:30;;;;;;;28.50;14.18;;;;;;;;;;5091731;28;20204;-79
2022/01/25 11:00:58;;;;;;;22.25;13.55;;;;;;;;;;5083143;28;20192;-76
2022/01/25 11:03:27;;;;;;;25.48;14.57;;;;;;;;;;5075960;28;20194;-79
2022/01/25 11:05:54;;;;;;;25.67;14.68;;;;;;;;;;5079393;28;20220;-78
2022/01/25 11:08:23;;;;;;;26.33;13.00;;;;;;;;;;5086892;28;20207;-79
2022/01/25 11:10:55;;;;;;;30.90;14.75;;;;;;;;;;5091831;28;20221;-78
2022/01/25 11:13:36;;;;;;;26.02;13.15;;;;;;;;;;5091995;28;20664;-80
2022/01/25 11:16:05;;;;;;;24.00;13.32;;;;;;;;;;5084764;28;20212;-78
2022/01/25 11:18:33;;;;;;;29.90;16.45;;;;;;;;;;5079561;28;20585;-80
2022/01/25 11:21:01;;;;;;;30.20;14.85;;;;;;;;;;5076791;28;20285;-79
2022/01/25 11:23:28;;;;;;;30.20;15.18;;;;;;;;;;5072464;28;20190;-76
2022/01/25 11:25:56;;;;;;;27.00;15.23;;;;;;;;;;5071877;28;20212;-82
2022/01/25 11:28:25;;;;;;;27.70;13.38;;;;;;;;;;5092514;28;20193;-81
2022/01/25 11:30:52;;;;;;;30.25;15.88;;;;;;;;;;5092521;28;20236;-79
2022/01/25 11:33:20;;;;;;;25.42;14.52;;;;;;;;;;5092151;28;20655;-80
2022/01/25 11:35:48;;;;;;;28.40;14.40;;;;;;;;;;5092833;28;20623;-80
2022/01/25 11:38:16;;;;;;;27.13;15.13;;;;;;;;;;5092199;28;20203;-78
2022/01/25 11:40:46;;;;;;;28.20;15.55;;;;;;;;;;5086139;28;20190;-78
2022/01/25 11:43:14;;;;;;;23.63;14.80;;;;;;;;;;5077836;28;20734;-79
2022/01/25 11:45:45;;;;;;;26.73;14.48;;;;;;;;;;5086645;28;20242;-78
2022/01/25 11:48:13;;;;;;;24.92;14.23;;;;;;;;;;5090940;28;20194;-78
2022/01/25 11:50:41;;;;;;;26.75;13.75;;;;;;;;;;5083291;28;20224;-80
2022/01/25 11:53:09;;;;;;;24.00;14.07;;;;;;;;;;5078025;28;20534;-79
2022/01/25 11:55:38;;;;;;;32.47;15.10;;;;;;;;;;5091744;28;20229;-81
2022/01/25 11:58:06;;;;;;;35.60;17.88;;;;;;;;;;5094164;28;20205;-77
2022/01/25 12:00:38;;;;;;;31.92;17.15;;;;;;;;;;5093319;28;20650;-77
2022/01/25 12:03:19;;;;;;;33.30;16.75;;;;;;;;;;5084799;28;20646;-79
2022/01/25 12:05:54;;;;;;;31.83;15.85;;;;;;;;;;5076223;28;20217;-80
2022/01/25 12:08:27;;;;;;;26.80;14.80;;;;;;;;;;5071724;28;20654;-77
2022/01/25 12:11:06;;;;;;;30.10;15.45;;;;;;;;;;5071311;28;20233;-78
2022/01/25 12:13:33;;;;;;;31.13;15.63;;;;;;;;;;5071465;28;20247;-83
2022/01/25 12:16:15;;;;;;;29.30;15.20;;;;;;;;;;5072403;28;20198;-78
2022/01/25 12:18:57;;;;;;;31.85;14.93;;;;;;;;;;5074447;28;20585;-76
2022/01/25 12:21:41;;;;;;;28.00;14.65;;;;;;;;;;5074088;28;20202;-79
2022/01/25 12:24:17;;;;;;;26.00;16.23;;;;;;;;;;5085733;28;20208;-79
2022/01/25 12:26:59;;;;;;;29.73;16.60;;;;;;;;;;5069819;28;20190;-77
2022/01/25 12:29:34;;;;;;;28.17;16.30;;;;;;;;;;5067866;28;20705;-78
2022/01/25 12:32:16;;;;;;;25.83;16.13;;;;;;;;;;5071347;28;20224;-80
2022/01/25 12:34:57;;;;;;;33.05;17.08;;;;;;;;;;5070665;28;20232;-81
2022/01/25 12:37:39;;;;;;;35.83;17.55;;;;;;;;;;5076355;28;20186;-81
2022/01/25 12:40:21;;;;;;;37.53;20.55;;;;;;;;;;5082315;28;20201;-77
2022/01/25 12:42:51;;;;;;;33.05;16.35;;;;;;;;;;5088156;28;20185;-77
2022/01/25 12:45:23;;;;;;;38.15;20.83;;;;;;;;;;5089617;28;20216;-81
2022/01/25 12:47:53;;;;;;;35.83;21.00;;;;;;;;;;5090795;28;20207;-80
2022/01/25 12:50:23;;;;;;;39.92;20.33;;;;;;;;;;5084223;28;20225;-80
2022/01/25 12:52:51;;;;;;;34.10;20.10;;;;;;;;;;5076626;28;20605;-79
2022/01/25 12:55:25;;;;;;;34.08;19.67;;;;;;;;;;5082118;28;20209;-78
2022/01/25 12:57:55;;;;;;;33.97;20.35;;;;;;;;;;5081798;28;20196;-80
2022/01/25 13:00:22;;;;;;;38.25;23.60;;;;;;;;;;5080522;28;20198;-81
2022/01/25 13:02:50;;;;;;;41.83;24.08;;;;;;;;;;5089400;28;20185;-78
2022/01/25 13:05:17;;;;;;;38.88;22.33;;;;;;;;;;5081778;28;20292;-77
2022/01/25 13:07:44;;;;;;;44.60;24.27;;;;;;;;;;5080292;28;20262;-79
2022/01/25 13:10:13;;;;;;;38.15;21.17;;;;;;;;;;5074004;28;20221;-78
2022/01/25 13:12:57;;;;;;;36.00;20.13;;;;;;;;;;5089674;28;20193;-79
2022/01/25 13:15:39;;;;;;;34.78;19.85;;;;;;;;;;5092348;28;20215;-82
2022/01/25 13:18:11;;;;;;;32.08;19.48;;;;;;;;;;5092262;28;20205;-79
2022/01/25 13:20:40;;;;;;;33.10;19.02;;;;;;;;;;5093849;28;20565;-77
2022/01/25 13:23:07;;;;;;;30.75;18.58;;;;;;;;;;5092495;28;20203;-79
2022/01/25 13:25:54;;;;;;;29.42;18.17;;;;;;;;;;5079434;28;20303;-79
2022/01/25 13:28:34;;;;;;;30.92;18.88;;;;;;;;;;5085455;28;20204;-77
2022/01/25 13:31:07;;;;;;;29.38;18.60;;;;;;;;;;5082903;28;20213;-78
2022/01/25 13:33:34;;;;;;;36.78;21.75;;;;;;;;;;5094114;28;20611;-76
2022/01/25 13:36:02;;;;;;;29.48;18.10;;;;;;;;;;5093083;28;20678;-77
2022/01/25 13:38:30;;;;;;;42.08;19.05;;;;;;;;;;5095034;28;20193;-81
2022/01/25 13:41:07;;;;;;;33.90;18.48;;;;;;;;;;5088640;28;20197;-83
2022/01/25 13:46:19;;;;;;;31.40;18.23;;;;;;;;;;5088553;28;20204;-82
2022/01/25 13:48:46;;;;;;;30.67;18.65;;;;;;;;;;5079266;28;20182;-79
2022/01/25 13:51:14;;;;;;;25.48;17.42;;;;;;;;;;5074625;28;20218;-80
2022/01/25 13:53:42;;;;;;;28.38;18.65;;;;;;;;;;5087826;28;20200;-79
2022/01/25 13:56:10;;;;;;;34.63;18.42;;;;;;;;;;5093040;28;20200;-76
2022/01/25 13:58:40;;;;;;;30.88;17.33;;;;;;;;;;5092858;28;20690;-82
2022/01/25 14:01:09;;;;;;;27.15;18.25;;;;;;;;;;5091941;28;20223;-80
2022/01/25 14:03:39;;;;;;;28.80;18.23;;;;;;;;;;5095585;28;20190;-81
2022/01/25 14:06:21;;;;;;;30.77;19.35;;;;;;;;;;5094319;28;20198;-82
2022/01/25 14:08:48;;;;;;;38.17;19.10;;;;;;;;;;5086536;28;20205;-79
2022/01/25 14:11:19;;;;;;;37.05;21.60;;;;;;;;;;5079309;28;20225;-76
2022/01/25 14:21:59;;;;;;;36.40;20.23;;;;;;;;;;5091806;28;20201;-85
2022/01/25 14:24:33;;;;;;;30.50;19.33;;;;;;;;;;5087970;28;20216;-80
2022/01/25 14:27:17;;;;;;;34.83;19.70;;;;;;;;;;5079104;28;20193;-79
2022/01/25 14:29:44;;;;;;;33.28;20.52;;;;;;;;;;5073700;28;20689;-84
2022/01/25 14:32:12;;;;;;;32.95;20.42;;;;;;;;;;5073039;28;20226;-82
2022/01/25 14:34:40;;;;;;;33.75;20.80;;;;;;;;;;5081202;28;20229;-79
2022/01/25 14:37:13;;;;;;;35.40;20.63;;;;;;;;;;5093780;28;20189;-80
2022/01/25 14:39:42;;;;;;;35.72;21.58;;;;;;;;;;5092958;28;20227;-83
2022/01/25 14:42:10;;;;;;;38.13;22.17;;;;;;;;;;5080655;28;20189;-78
2022/01/25 14:44:41;;;;;;;38.70;22.25;;;;;;;;;;5077283;28;20214;-82
2022/01/25 14:47:12;;;;;;;32.75;19.98;;;;;;;;;;5073763;28;22052;-80
2022/01/25 14:49:46;;;;;;;34.05;20.45;;;;;;;;;;5091751;28;20193;-80
2022/01/25 14:52:13;;;;;;;30.63;19.77;;;;;;;;;;5091664;28;20224;-80
2022/01/25 14:54:41;;;;;;;33.72;20.42;;;;;;;;;;5093278;28;20220;-81
2022/01/25 14:57:12;;;;;;;35.67;20.65;;;;;;;;;;5084084;28;20279;-76
2022/01/25 14:59:46;;;;;;;32.92;19.90;;;;;;;;;;5076935;28;20274;-81
2022/01/25 15:02:14;;;;;;;34.50;21.13;;;;;;;;;;5087694;28;20562;-79
2022/01/25 15:04:44;;;;;;;35.63;21.88;;;;;;;;;;5092437;28;20709;-81
2022/01/25 15:07:12;;;;;;;32.42;19.85;;;;;;;;;;5090984;28;20196;-81
2022/01/25 15:09:48;;;;;;;41.65;21.20;;;;;;;;;;5091635;28;20700;-80
2022/01/25 15:12:18;;;;;;;31.42;19.92;;;;;;;;;;5089757;28;20223;-78
2022/01/25 15:14:53;;;;;;;32.00;20.15;;;;;;;;;;5087341;28;20217;-76
2022/01/25 15:17:21;;;;;;;32.55;19.63;;;;;;;;;;5078006;28;20292;-76
2022/01/25 15:19:49;;;;;;;34.85;21.88;;;;;;;;;;5083169;28;20193;-81
2022/01/25 15:22:19;;;;;;;34.80;21.02;;;;;;;;;;5092215;28;20198;-81
2022/01/25 15:24:48;;;;;;;35.63;20.13;;;;;;;;;;5092511;28;20434;-86
2022/01/25 15:27:15;;;;;;;34.97;19.65;;;;;;;;;;5092149;28;20192;-79
2022/01/25 15:29:43;;;;;;;32.83;20.33;;;;;;;;;;5091562;28;20288;-78
2022/01/25 15:32:10;;;;;;;32.58;20.80;;;;;;;;;;5081471;28;20232;-80
2022/01/25 15:34:40;;;;;;;38.20;19.08;;;;;;;;;;5075654;28;20237;-77
2022/01/25 15:37:10;;;;;;;32.15;21.30;;;;;;;;;;5071567;28;20198;-80
2022/01/25 15:39:37;;;;;;;31.77;18.50;;;;;;;;;;5072391;28;20655;-79
2022/01/25 15:42:05;;;;;;;30.92;18.85;;;;;;;;;;5071534;28;20190;-82
2022/01/25 15:44:37;;;;;;;32.15;19.77;;;;;;;;;;5071798;28;20221;-83
2022/01/25 15:47:08;;;;;;;32.80;20.23;;;;;;;;;;5086002;28;20230;-79
2022/01/25 15:49:36;;;;;;;33.03;21.48;;;;;;;;;;5078364;28;20705;-81
2022/01/25 15:52:04;;;;;;;30.45;18.63;;;;;;;;;;5076047;28;20218;-80
2022/01/25 15:54:32;;;;;;;36.40;19.80;;;;;;;;;;5091632;28;20544;-82
2022/01/25 15:57:00;;;;;;;41.53;21.25;;;;;;;;;;5091669;28;20193;-79